AirNav   Air Wisconsin pilot careers
 
 1033 users online  

2NK4 Westchester Resco Heliport
Peekskill, New York, USA

GOING TO PEEKSKILL?


FAA INFORMATION EFFECTIVE 16 AUGUST 2018

Location

FAA Identifier: 2NK4
Lat/Long: 41-16-38.3380N / 073-56-25.4990W
41-16.638967N / 073-56.424983W
41.2773161 / -73.9404164
(estimated)
Elevation: 72 ft. / 22 m (estimated)
Variation: 13W (1985)
From city: 1 mile NE of PEEKSKILL, NY
Time zone: UTC -4 (UTC -5 during Standard Time)
Zip code: 10566

Heliport Operations

Heliport use: Private use. Permission required prior to landing
Activation date: 06/1987
Control tower: no
ARTCC: NEW YORK CENTER
FSS: NEW YORK FLIGHT SERVICE STATION
Attendance: UNATNDD
Segmented circle: no

Heliport Communications

WX ASOS at HPN (16 nm SE): PHONE 914-288-0216

Nearby radio navigation aids

VOR radial/distance  VOR name  Freq  Var
CMKr281/16.2CARMEL VOR/DME116.6012W
IGNr205/23.9KINGSTON VOR/DME117.6012W
TEBr023/26.3TETERBORO VOR/DME108.4011W
SAXr076/29.8SPARTA VORTAC115.7011W
LGAr006/29.8LA GUARDIA VOR/DME113.1012W
HUOr116/30.4HUGUENOT VOR/DME116.1011W
PWLr219/33.3PAWLING VOR/DME114.3012W
BDRr293/37.5BRIDGEPORT VOR/DME108.8012W
JFKr001/39.4KENNEDY VOR/DME115.9012W
CRIr008/39.9CANARSIE VOR/DME112.3011W

 
NDB name  Hdg/Dist  Freq  Var  ID
STANWYCK175/15.826112WSKU ... -.- ..-
CLERA274/37.836214WJWE .--- .-- .
CHATHAM048/39.125413WCAT -.-. .- -

Heliport Services

Runway Information

Helipad H1

Dimensions: 30 x 30 ft. / 9 x 9 m
Surface: asphalt
Traffic pattern: leftleft

Heliport Ownership and Management from official FAA records

Ownership: Privately-owned
Owner: WESTCHESTER RESCO CO. L.P.
1 CHARLES POINT AVE.
PEEKSKILL, NY 10566
Phone 914-739-9304
Manager: BRETT BAKER
1 CHARLES POINT AVE.
PEEKSKILL, NY 10566
Phone 914-739-9304
ADDITIONAL CONTACT: JIM PRYOR 914-739-9304 EX. 214

Instrument Procedures

There are no published instrument procedures at 2NK4.

Some nearby airports with instrument procedures:

KSWF - Stewart International Airport (15 nm NW)
KHPN - Westchester County Airport (16 nm SE)
KMGJ - Orange County Airport (20 nm NW)
4N1 - Greenwood Lake Airport (20 nm SW)
KPOU - Hudson Valley Regional Airport (21 nm N)
 
Loc | Ops | Rwys | IFR | FBO | Links
Com | Nav | Svcs | Stats | Notes


 
Area around 2NK4 (Westchester Resco Heliport)
 
Road maps at: MapQuest Bing Google
 
Aerial photo
No photo
 
Sectional chart

 
Airport distance calculator
Flying to Westchester Resco Heliport? Find the distance to fly.

From to 2NK4

Sunrise and sunset
Times for 20-Aug-2018
 Local
(UTC-4)
 Zulu
(UTC)
Morning civil twilight05:4209:42
Sunrise06:1110:11
Sunset19:4723:47
Evening civil twilight20:1700:17

Current date and time
Zulu (UTC)  21-Aug-2018 00:39:49
Local (UTC-4)  20-Aug-2018 20:39:49
 
METAR
KSWF 
15nm NW 
202345Z 00000KT 10SM BKN060 23/19 A3014
KHPN 
17nm SE 
202356Z 00000KT 10SM SCT010 BKN065 22/18 A3013 RMK AO2 SLP199 T02170178 10233 20211 53004
KMGJ 
21nm NW 
SuperAWOS
202354Z AUTO 00000KT 10SM OVC065 21/19 A3012 RMK AO2 SLP200 T02110194 10250 20211 53004 $
KDXR 
21nm E 
202353Z 16003KT 10SM FEW046 OVC060 21/18 A3015 RMK AO2 SLP206 T02110183 10233 20211 53005
KPOU 
22nm N 
202353Z 00000KT 10SM OVC070 22/18 A3011 RMK AO2 SLP191 T02170178 10244 20217 52004
KTEB 
25nm S 
210012Z 22005KT 10SM SCT021 SCT075 22/19 A3011 RMK AO2 T02220194
KCDW 
28nm SW 
202353Z 15005KT 10SM FEW031 FEW048 OVC070 23/19 A3013 RMK AO2 SLP206 T02280189 10239 20217 51004
TAF
KSWF 
15nm NW 
202130Z 2022/2124 14005KT P6SM SCT025 BKN035 FM210000 VRB04KT P6SM SCT025 BKN035 FM210600 VRB04KT P6SM SCT015 BKN025 FM211500 13005KT P6SM OVC025 AMD NOT SKED
KHPN 
17nm SE 
202130Z 2022/2118 11005KT P6SM SCT025 BKN035 FM210300 VRB04KT P6SM SCT015 BKN025 FM210900 VRB03KT P6SM SCT007 BKN015 TEMPO 2109/2112 5SM BR BKN009 FM211600 11006KT P6SM SCT015 OVC025 AMD NOT SKED
NOTAMs
Click for the latest NOTAMs
NOTAMs are issued by the DoD/FAA and will open in a separate window not controlled by AirNav.

 

 
 

Would you like to see your business listed on this page?

 If your business provides an interesting product or service to pilots, flight crews, aircraft, or users of the Westchester Resco Heliport, you should consider listing it here.  To start the listing process, click on the button below
 
Add a business
 

Other Pages about Westchester Resco Heliport

Update a link
 
Copyright © AirNav, LLC. All rights reserved. Privacy Policy  Contact